sensor_id;sensor_type;location;lat;lon;timestamp;pressure;altitude;pressure_sealevel;temperature;humidity
54262;BME280;40174;52.364;6.452;2023-05-16T00:00:10;101579.91;;;10.47;100.00
54262;BME280;40174;52.364;6.452;2023-05-16T00:02:37;101576.50;;;10.45;100.00
54262;BME280;40174;52.364;6.452;2023-05-16T00:05:05;101574.91;;;10.42;100.00
54262;BME280;40174;52.364;6.452;2023-05-16T00:07:34;101575.81;;;10.28;100.00
54262;BME280;40174;52.364;6.452;2023-05-16T00:10:01;101575.00;;;10.28;100.00
54262;BME280;40174;52.364;6.452;2023-05-16T00:12:28;101574.94;;;10.29;100.00
54262;BME280;40174;52.364;6.452;2023-05-16T00:14:54;101576.44;;;10.19;100.00
54262;BME280;40174;52.364;6.452;2023-05-16T00:17:22;101579.09;;;10.19;100.00
54262;BME280;40174;52.364;6.452;2023-05-16T00:19:53;101581.06;;;10.15;100.00
54262;BME280;40174;52.364;6.452;2023-05-16T00:22:22;101579.16;;;10.05;100.00
54262;BME280;40174;52.364;6.452;2023-05-16T00:24:49;101585.28;;;10.05;100.00
54262;BME280;40174;52.364;6.452;2023-05-16T00:27:16;101586.97;;;10.06;100.00
54262;BME280;40174;52.364;6.452;2023-05-16T00:29:42;101579.16;;;10.05;100.00
54262;BME280;40174;52.364;6.452;2023-05-16T00:32:09;101580.41;;;9.99;100.00
54262;BME280;40174;52.364;6.452;2023-05-16T00:34:37;101576.84;;;10.00;100.00
54262;BME280;40174;52.364;6.452;2023-05-16T00:37:04;101573.31;;;9.87;100.00
54262;BME280;40174;52.364;6.452;2023-05-16T00:39:30;101569.69;;;9.88;100.00
54262;BME280;40174;52.364;6.452;2023-05-16T00:41:57;101581.22;;;9.87;100.00
54262;BME280;40174;52.364;6.452;2023-05-16T00:44:24;101583.88;;;9.87;100.00
54262;BME280;40174;52.364;6.452;2023-05-16T00:46:50;101590.16;;;9.84;100.00
54262;BME280;40174;52.364;6.452;2023-05-16T00:49:17;101587.81;;;9.79;100.00
54262;BME280;40174;52.364;6.452;2023-05-16T00:51:45;101588.84;;;9.64;100.00
54262;BME280;40174;52.364;6.452;2023-05-16T00:54:12;101592.19;;;9.66;100.00
54262;BME280;40174;52.364;6.452;2023-05-16T00:56:39;101593.22;;;9.51;100.00
54262;BME280;40174;52.364;6.452;2023-05-16T00:59:05;101594.88;;;9.52;100.00
54262;BME280;40174;52.364;6.452;2023-05-16T01:01:32;101597.81;;;9.47;100.00
54262;BME280;40174;52.364;6.452;2023-05-16T01:04:00;101592.94;;;9.41;100.00
54262;BME280;40174;52.364;6.452;2023-05-16T01:06:28;101598.22;;;9.41;100.00
54262;BME280;40174;52.364;6.452;2023-05-16T01:08:55;101600.09;;;9.39;100.00
54262;BME280;40174;52.364;6.452;2023-05-16T01:11:27;101600.97;;;9.40;100.00
54262;BME280;40174;52.364;6.452;2023-05-16T01:14:02;101606.63;;;9.33;100.00
54262;BME280;40174;52.364;6.452;2023-05-16T01:16:36;101604.34;;;9.27;100.00
54262;BME280;40174;52.364;6.452;2023-05-16T01:19:12;101602.66;;;9.26;100.00
54262;BME280;40174;52.364;6.452;2023-05-16T01:21:44;101604.84;;;9.20;100.00
54262;BME280;40174;52.364;6.452;2023-05-16T01:24:26;101602.38;;;9.16;100.00
54262;BME280;40174;52.364;6.452;2023-05-16T01:26:59;101605.22;;;9.13;100.00
54262;BME280;40174;52.364;6.452;2023-05-16T01:29:25;101596.56;;;9.11;100.00
54262;BME280;40174;52.364;6.452;2023-05-16T01:31:52;101604.53;;;9.10;100.00
54262;BME280;40174;52.364;6.452;2023-05-16T01:34:18;101598.63;;;9.06;100.00
54262;BME280;40174;52.364;6.452;2023-05-16T01:36:49;101595.41;;;9.01;100.00
54262;BME280;40174;52.364;6.452;2023-05-16T01:39:19;101600.88;;;8.98;100.00
54262;BME280;40174;52.364;6.452;2023-05-16T01:41:53;101602.97;;;8.93;100.00
54262;BME280;40174;52.364;6.452;2023-05-16T01:44:28;101606.03;;;8.85;100.00
54262;BME280;40174;52.364;6.452;2023-05-16T01:46:58;101599.94;;;8.85;100.00
54262;BME280;40174;52.364;6.452;2023-05-16T01:49:30;101602.00;;;8.80;100.00
54262;BME280;40174;52.364;6.452;2023-05-16T01:52:07;101602.28;;;8.75;100.00
54262;BME280;40174;52.364;6.452;2023-05-16T01:54:37;101601.53;;;8.73;100.00
54262;BME280;40174;52.364;6.452;2023-05-16T01:57:05;101600.28;;;8.64;100.00
54262;BME280;40174;52.364;6.452;2023-05-16T01:59:35;101600.84;;;8.55;100.00
54262;BME280;40174;52.364;6.452;2023-05-16T02:02:04;101607.63;;;8.59;100.00
54262;BME280;40174;52.364;6.452;2023-05-16T02:04:30;101606.69;;;8.60;100.00
54262;BME280;40174;52.364;6.452;2023-05-16T02:06:57;101600.84;;;8.55;100.00
54262;BME280;40174;52.364;6.452;2023-05-16T02:09:24;101604.25;;;8.57;100.00
54262;BME280;40174;52.364;6.452;2023-05-16T02:11:51;101605.44;;;8.51;100.00
54262;BME280;40174;52.364;6.452;2023-05-16T02:14:18;101602.91;;;8.50;100.00
54262;BME280;40174;52.364;6.452;2023-05-16T02:16:47;101605.63;;;8.48;100.00
54262;BME280;40174;52.364;6.452;2023-05-16T02:19:13;101608.47;;;8.45;100.00
54262;BME280;40174;52.364;6.452;2023-05-16T02:21:40;101601.72;;;8.40;100.00
54262;BME280;40174;52.364;6.452;2023-05-16T02:24:06;101606.50;;;8.33;100.00
54262;BME280;40174;52.364;6.452;2023-05-16T02:26:33;101606.69;;;8.30;100.00
54262;BME280;40174;52.364;6.452;2023-05-16T02:29:00;101613.72;;;8.29;100.00
54262;BME280;40174;52.364;6.452;2023-05-16T02:31:27;101611.28;;;8.26;100.00
54262;BME280;40174;52.364;6.452;2023-05-16T02:33:55;101614.09;;;8.23;100.00
54262;BME280;40174;52.364;6.452;2023-05-16T02:36:23;101611.53;;;8.22;100.00
54262;BME280;40174;52.364;6.452;2023-05-16T02:38:49;101610.78;;;8.20;100.00
54262;BME280;40174;52.364;6.452;2023-05-16T02:41:16;101615.53;;;8.13;100.00
54262;BME280;40174;52.364;6.452;2023-05-16T02:43:43;101621.00;;;8.10;100.00
54262;BME280;40174;52.364;6.452;2023-05-16T02:46:22;101617.03;;;8.03;100.00
54262;BME280;40174;52.364;6.452;2023-05-16T02:48:49;101621.25;;;8.05;100.00
54262;BME280;40174;52.364;6.452;2023-05-16T02:51:18;101620.38;;;8.05;100.00
54262;BME280;40174;52.364;6.452;2023-05-16T02:53:45;101632.31;;;7.96;100.00
54262;BME280;40174;52.364;6.452;2023-05-16T02:56:12;101629.84;;;7.93;100.00
54262;BME280;40174;52.364;6.452;2023-05-16T02:58:39;101630.09;;;7.88;100.00
54262;BME280;40174;52.364;6.452;2023-05-16T03:01:06;101631.19;;;7.84;100.00
54262;BME280;40174;52.364;6.452;2023-05-16T03:03:33;101635.63;;;7.84;100.00
54262;BME280;40174;52.364;6.452;2023-05-16T03:06:01;101636.72;;;7.80;100.00
54262;BME280;40174;52.364;6.452;2023-05-16T03:08:29;101627.22;;;7.77;100.00
54262;BME280;40174;52.364;6.452;2023-05-16T03:10:55;101640.31;;;7.79;100.00
54262;BME280;40174;52.364;6.452;2023-05-16T03:13:22;101635.63;;;7.68;100.00
54262;BME280;40174;52.364;6.452;2023-05-16T03:15:49;101643.78;;;7.63;100.00
54262;BME280;40174;52.364;6.452;2023-05-16T03:18:16;101636.13;;;7.59;100.00
54262;BME280;40174;52.364;6.452;2023-05-16T03:20:43;101642.25;;;7.59;100.00
54262;BME280;40174;52.364;6.452;2023-05-16T03:23:10;101646.66;;;7.59;100.00
54262;BME280;40174;52.364;6.452;2023-05-16T03:25:38;101640.56;;;7.58;100.00
54262;BME280;40174;52.364;6.452;2023-05-16T03:28:05;101654.88;;;7.53;100.00
54262;BME280;40174;52.364;6.452;2023-05-16T03:30:33;101645.47;;;7.48;100.00
54262;BME280;40174;52.364;6.452;2023-05-16T03:32:59;101648.97;;;7.49;100.00
54262;BME280;40174;52.364;6.452;2023-05-16T03:35:26;101662.97;;;7.49;100.00
54262;BME280;40174;52.364;6.452;2023-05-16T03:37:53;101650.97;;;7.44;100.00
54262;BME280;40174;52.364;6.452;2023-05-16T03:40:19;101658.00;;;7.43;100.00
54262;BME280;40174;52.364;6.452;2023-05-16T03:42:47;101664.38;;;7.39;100.00
54262;BME280;40174;52.364;6.452;2023-05-16T03:45:14;101663.78;;;7.34;100.00
54262;BME280;40174;52.364;6.452;2023-05-16T03:47:41;101660.31;;;7.34;100.00
54262;BME280;40174;52.364;6.452;2023-05-16T03:50:08;101670.97;;;7.31;100.00
54262;BME280;40174;52.364;6.452;2023-05-16T03:52:35;101672.94;;;7.27;100.00
54262;BME280;40174;52.364;6.452;2023-05-16T03:55:02;101678.25;;;7.25;100.00
54262;BME280;40174;52.364;6.452;2023-05-16T03:57:31;101675.63;;;7.25;100.00
54262;BME280;40174;52.364;6.452;2023-05-16T03:59:59;101683.59;;;7.24;100.00
54262;BME280;40174;52.364;6.452;2023-05-16T04:02:25;101677.66;;;7.20;100.00
54262;BME280;40174;52.364;6.452;2023-05-16T04:04:52;101678.56;;;7.19;100.00
54262;BME280;40174;52.364;6.452;2023-05-16T04:07:19;101687.34;;;7.20;100.00
54262;BME280;40174;52.364;6.452;2023-05-16T04:09:46;101682.06;;;7.20;100.00
54262;BME280;40174;52.364;6.452;2023-05-16T04:12:12;101683.00;;;7.19;100.00
54262;BME280;40174;52.364;6.452;2023-05-16T04:14:39;101685.69;;;7.17;100.00
54262;BME280;40174;52.364;6.452;2023-05-16T04:17:07;101688.50;;;7.14;100.00
54262;BME280;40174;52.364;6.452;2023-05-16T04:19:33;101672.78;;;7.13;100.00
54262;BME280;40174;52.364;6.452;2023-05-16T04:22:00;101675.34;;;7.14;100.00
54262;BME280;40174;52.364;6.452;2023-05-16T04:24:27;101681.44;;;7.15;100.00
54262;BME280;40174;52.364;6.452;2023-05-16T04:26:53;101680.00;;;7.09;100.00
54262;BME280;40174;52.364;6.452;2023-05-16T04:29:20;101679.00;;;7.12;100.00
54262;BME280;40174;52.364;6.452;2023-05-16T04:31:47;101686.81;;;7.13;100.00
54262;BME280;40174;52.364;6.452;2023-05-16T04:34:15;101688.56;;;7.13;100.00
54262;BME280;40174;52.364;6.452;2023-05-16T04:36:42;101685.03;;;7.14;100.00
54262;BME280;40174;52.364;6.452;2023-05-16T04:39:08;101691.19;;;7.13;100.00
54262;BME280;40174;52.364;6.452;2023-05-16T04:41:36;101692.06;;;7.13;100.00
54262;BME280;40174;52.364;6.452;2023-05-16T04:44:02;101701.56;;;7.16;100.00
54262;BME280;40174;52.364;6.452;2023-05-16T04:46:29;101706.06;;;7.14;100.00
54262;BME280;40174;52.364;6.452;2023-05-16T04:48:56;101710.28;;;7.16;100.00
54262;BME280;40174;52.364;6.452;2023-05-16T04:51:23;101706.97;;;7.13;100.00
54262;BME280;40174;52.364;6.452;2023-05-16T04:53:50;101709.34;;;7.17;100.00
54262;BME280;40174;52.364;6.452;2023-05-16T04:56:18;101703.41;;;7.14;100.00
54262;BME280;40174;52.364;6.452;2023-05-16T04:58:45;101713.63;;;7.20;100.00
54262;BME280;40174;52.364;6.452;2023-05-16T05:01:11;101713.53;;;7.21;100.00
54262;BME280;40174;52.364;6.452;2023-05-16T05:03:38;101712.63;;;7.22;100.00
54262;BME280;40174;52.364;6.452;2023-05-16T05:06:05;101716.84;;;7.25;100.00
54262;BME280;40174;52.364;6.452;2023-05-16T05:08:33;101718.66;;;7.24;100.00
54262;BME280;40174;52.364;6.452;2023-05-16T05:11:00;101713.91;;;7.31;100.00
54262;BME280;40174;52.364;6.452;2023-05-16T05:13:27;101725.22;;;7.33;100.00
54262;BME280;40174;52.364;6.452;2023-05-16T05:15:53;101727.72;;;7.35;100.00
54262;BME280;40174;52.364;6.452;2023-05-16T05:18:20;101725.88;;;7.37;100.00
54262;BME280;40174;52.364;6.452;2023-05-16T05:20:47;101731.91;;;7.39;100.00
54262;BME280;40174;52.364;6.452;2023-05-16T05:23:13;101739.72;;;7.40;100.00
54262;BME280;40174;52.364;6.452;2023-05-16T05:25:41;101736.09;;;7.43;100.00
54262;BME280;40174;52.364;6.452;2023-05-16T05:28:08;101742.97;;;7.45;100.00
54262;BME280;40174;52.364;6.452;2023-05-16T05:30:35;101739.25;;;7.49;100.00
54262;BME280;40174;52.364;6.452;2023-05-16T05:33:01;101741.69;;;7.53;100.00
54262;BME280;40174;52.364;6.452;2023-05-16T05:35:28;101741.38;;;7.59;100.00
54262;BME280;40174;52.364;6.452;2023-05-16T05:37:54;101743.84;;;7.62;100.00
54262;BME280;40174;52.364;6.452;2023-05-16T05:40:21;101747.09;;;7.67;100.00
54262;BME280;40174;52.364;6.452;2023-05-16T05:42:49;101747.75;;;7.70;100.00
54262;BME280;40174;52.364;6.452;2023-05-16T05:45:15;101748.47;;;7.74;100.00
54262;BME280;40174;52.364;6.452;2023-05-16T05:47:43;101758.75;;;7.79;100.00
54262;BME280;40174;52.364;6.452;2023-05-16T05:50:10;101748.88;;;7.82;100.00
54262;BME280;40174;52.364;6.452;2023-05-16T05:52:37;101754.00;;;7.85;100.00
54262;BME280;40174;52.364;6.452;2023-05-16T05:55:04;101754.50;;;7.92;100.00
54262;BME280;40174;52.364;6.452;2023-05-16T05:57:31;101769.88;;;8.00;100.00
54262;BME280;40174;52.364;6.452;2023-05-16T05:59:59;101766.91;;;8.06;100.00
54262;BME280;40174;52.364;6.452;2023-05-16T06:02:26;101770.84;;;8.15;100.00
54262;BME280;40174;52.364;6.452;2023-05-16T06:04:53;101758.31;;;8.18;100.00
54262;BME280;40174;52.364;6.452;2023-05-16T06:07:20;101758.00;;;8.24;100.00
54262;BME280;40174;52.364;6.452;2023-05-16T06:09:46;101766.59;;;8.28;100.00
54262;BME280;40174;52.364;6.452;2023-05-16T06:12:13;101760.81;;;8.37;100.00
54262;BME280;40174;52.364;6.452;2023-05-16T06:14:39;101761.50;;;8.41;100.00
54262;BME280;40174;52.364;6.452;2023-05-16T06:17:07;101764.75;;;8.46;100.00
54262;BME280;40174;52.364;6.452;2023-05-16T06:19:34;101773.81;;;8.56;100.00
54262;BME280;40174;52.364;6.452;2023-05-16T06:22:00;101775.19;;;8.63;100.00
54262;BME280;40174;52.364;6.452;2023-05-16T06:24:27;101778.13;;;8.73;100.00
54262;BME280;40174;52.364;6.452;2023-05-16T06:26:54;101778.13;;;8.73;100.00
54262;BME280;40174;52.364;6.452;2023-05-16T06:29:21;101777.03;;;8.77;100.00
54262;BME280;40174;52.364;6.452;2023-05-16T06:31:48;101777.06;;;8.91;100.00
54262;BME280;40174;52.364;6.452;2023-05-16T06:34:16;101773.31;;;8.95;100.00
54262;BME280;40174;52.364;6.452;2023-05-16T06:36:42;101777.34;;;9.01;100.00
54262;BME280;40174;52.364;6.452;2023-05-16T06:39:09;101788.50;;;9.06;100.00
54262;BME280;40174;52.364;6.452;2023-05-16T06:41:36;101790.09;;;9.09;100.00
54262;BME280;40174;52.364;6.452;2023-05-16T06:44:02;101792.41;;;9.15;100.00
54262;BME280;40174;52.364;6.452;2023-05-16T06:46:29;101788.53;;;9.21;100.00
54262;BME280;40174;52.364;6.452;2023-05-16T06:48:55;101788.94;;;9.29;100.00
54262;BME280;40174;52.364;6.452;2023-05-16T06:51:23;101787.25;;;9.42;100.00
54262;BME280;40174;52.364;6.452;2023-05-16T06:53:50;101788.59;;;9.49;100.00
54262;BME280;40174;52.364;6.452;2023-05-16T06:56:16;101779.53;;;9.53;100.00
54262;BME280;40174;52.364;6.452;2023-05-16T06:58:43;101786.41;;;9.56;100.00
54262;BME280;40174;52.364;6.452;2023-05-16T07:01:10;101787.19;;;9.58;100.00
54262;BME280;40174;52.364;6.452;2023-05-16T07:03:36;101791.88;;;9.67;100.00
54262;BME280;40174;52.364;6.452;2023-05-16T07:06:03;101794.44;;;9.83;100.00
54262;BME280;40174;52.364;6.452;2023-05-16T07:08:31;101789.25;;;9.96;100.00
54262;BME280;40174;52.364;6.452;2023-05-16T07:11:00;101794.88;;;10.04;100.00
54262;BME280;40174;52.364;6.452;2023-05-16T07:13:26;101789.22;;;10.10;100.00
54262;BME280;40174;52.364;6.452;2023-05-16T07:15:53;101795.63;;;10.20;100.00
54262;BME280;40174;52.364;6.452;2023-05-16T07:18:19;101798.06;;;10.38;100.00
54262;BME280;40174;52.364;6.452;2023-05-16T07:20:46;101800.31;;;10.44;100.00
54262;BME280;40174;52.364;6.452;2023-05-16T07:23:13;101795.84;;;10.59;100.00
54262;BME280;40174;52.364;6.452;2023-05-16T07:25:40;101803.41;;;10.78;99.63
54262;BME280;40174;52.364;6.452;2023-05-16T07:28:07;101805.56;;;10.86;97.30
54262;BME280;40174;52.364;6.452;2023-05-16T07:30:34;101796.19;;;11.07;96.90
54262;BME280;40174;52.364;6.452;2023-05-16T07:33:00;101801.91;;;11.14;94.55
54262;BME280;40174;52.364;6.452;2023-05-16T07:35:27;101809.66;;;11.17;89.30
54262;BME280;40174;52.364;6.452;2023-05-16T07:37:54;101801.19;;;11.24;89.06
54262;BME280;40174;52.364;6.452;2023-05-16T07:40:20;101803.97;;;11.49;89.74
54262;BME280;40174;52.364;6.452;2023-05-16T07:42:51;101807.88;;;11.43;86.94
54262;BME280;40174;52.364;6.452;2023-05-16T07:45:18;101806.81;;;11.33;85.76
54262;BME280;40174;52.364;6.452;2023-05-16T07:47:45;101807.66;;;11.72;88.85
54262;BME280;40174;52.364;6.452;2023-05-16T07:50:11;101803.34;;;11.96;87.91
54262;BME280;40174;52.364;6.452;2023-05-16T07:52:38;101803.09;;;12.12;85.39
54262;BME280;40174;52.364;6.452;2023-05-16T07:55:05;101814.28;;;12.28;86.38
54262;BME280;40174;52.364;6.452;2023-05-16T07:57:32;101812.84;;;12.24;84.92
54262;BME280;40174;52.364;6.452;2023-05-16T08:00:00;101808.47;;;12.60;84.23
54262;BME280;40174;52.364;6.452;2023-05-16T08:02:37;101811.56;;;12.78;81.66
54262;BME280;40174;52.364;6.452;2023-05-16T08:05:05;101809.66;;;12.80;81.33
54262;BME280;40174;52.364;6.452;2023-05-16T08:07:31;101807.44;;;12.74;80.35
54262;BME280;40174;52.364;6.452;2023-05-16T08:09:58;101810.34;;;13.06;80.56
54262;BME280;40174;52.364;6.452;2023-05-16T08:12:25;101813.81;;;13.31;77.88
54262;BME280;40174;52.364;6.452;2023-05-16T08:14:52;101819.63;;;13.47;78.22
54262;BME280;40174;52.364;6.452;2023-05-16T08:17:20;101818.19;;;13.32;81.01
54262;BME280;40174;52.364;6.452;2023-05-16T08:19:46;101818.31;;;13.42;80.61
54262;BME280;40174;52.364;6.452;2023-05-16T08:22:14;101816.38;;;13.44;81.04
54262;BME280;40174;52.364;6.452;2023-05-16T08:24:40;101823.38;;;13.45;79.95
54262;BME280;40174;52.364;6.452;2023-05-16T08:27:07;101820.19;;;13.75;77.79
54262;BME280;40174;52.364;6.452;2023-05-16T08:29:33;101823.69;;;13.87;76.88
54262;BME280;40174;52.364;6.452;2023-05-16T08:32:00;101831.91;;;13.95;75.57
54262;BME280;40174;52.364;6.452;2023-05-16T08:34:29;101825.84;;;13.82;76.80
54262;BME280;40174;52.364;6.452;2023-05-16T08:36:56;101824.66;;;14.08;77.04
54262;BME280;40174;52.364;6.452;2023-05-16T08:39:22;101819.34;;;13.75;75.73
54262;BME280;40174;52.364;6.452;2023-05-16T08:41:49;101821.47;;;13.69;76.41
54262;BME280;40174;52.364;6.452;2023-05-16T08:44:15;101821.97;;;13.63;75.87
54262;BME280;40174;52.364;6.452;2023-05-16T08:46:49;101828.50;;;13.70;75.75
54262;BME280;40174;52.364;6.452;2023-05-16T08:49:17;101816.66;;;13.63;76.98
54262;BME280;40174;52.364;6.452;2023-05-16T08:51:46;101814.66;;;13.31;73.76
54262;BME280;40174;52.364;6.452;2023-05-16T08:54:14;101823.19;;;13.59;75.58
54262;BME280;40174;52.364;6.452;2023-05-16T08:56:42;101824.28;;;13.79;74.52
54262;BME280;40174;52.364;6.452;2023-05-16T08:59:09;101828.63;;;13.91;73.23
54262;BME280;40174;52.364;6.452;2023-05-16T09:01:37;101820.03;;;13.65;72.60
54262;BME280;40174;52.364;6.452;2023-05-16T09:04:06;101833.81;;;13.59;70.13
54262;BME280;40174;52.364;6.452;2023-05-16T09:06:33;101827.31;;;13.86;68.81
54262;BME280;40174;52.364;6.452;2023-05-16T09:09:01;101822.56;;;14.12;68.74
54262;BME280;40174;52.364;6.452;2023-05-16T09:11:28;101818.25;;;14.00;68.14
54262;BME280;40174;52.364;6.452;2023-05-16T09:13:55;101821.84;;;14.21;65.14
54262;BME280;40174;52.364;6.452;2023-05-16T09:16:22;101826.22;;;14.22;67.75
54262;BME280;40174;52.364;6.452;2023-05-16T09:18:53;101829.25;;;14.06;67.69
54262;BME280;40174;52.364;6.452;2023-05-16T09:21:21;101822.44;;;14.25;68.33
54262;BME280;40174;52.364;6.452;2023-05-16T09:23:48;101821.66;;;14.68;68.32
54262;BME280;40174;52.364;6.452;2023-05-16T09:26:18;101812.63;;;14.91;67.11
54262;BME280;40174;52.364;6.452;2023-05-16T09:28:44;101818.69;;;15.14;64.63
54262;BME280;40174;52.364;6.452;2023-05-16T09:31:21;101807.38;;;15.01;62.53
54262;BME280;40174;52.364;6.452;2023-05-16T09:33:49;101812.41;;;14.40;62.68
54262;BME280;40174;52.364;6.452;2023-05-16T09:36:15;101828.47;;;14.61;61.26
54262;BME280;40174;52.364;6.452;2023-05-16T09:38:42;101826.06;;;14.35;61.64
54262;BME280;40174;52.364;6.452;2023-05-16T09:41:09;101840.59;;;14.31;61.03
54262;BME280;40174;52.364;6.452;2023-05-16T09:43:39;101831.28;;;14.03;62.29
54262;BME280;40174;52.364;6.452;2023-05-16T09:46:07;101840.94;;;14.38;64.21
54262;BME280;40174;52.364;6.452;2023-05-16T09:48:34;101841.38;;;14.54;64.14
54262;BME280;40174;52.364;6.452;2023-05-16T09:51:04;101845.00;;;14.75;62.19
54262;BME280;40174;52.364;6.452;2023-05-16T09:53:32;101845.16;;;14.95;61.52
54262;BME280;40174;52.364;6.452;2023-05-16T09:55:59;101844.97;;;15.08;59.96
54262;BME280;40174;52.364;6.452;2023-05-16T09:58:28;101838.16;;;14.94;57.66
54262;BME280;40174;52.364;6.452;2023-05-16T10:00:56;101839.00;;;15.15;58.02
54262;BME280;40174;52.364;6.452;2023-05-16T10:03:24;101850.56;;;15.05;57.11
54262;BME280;40174;52.364;6.452;2023-05-16T10:05:51;101835.06;;;15.31;54.66
54262;BME280;40174;52.364;6.452;2023-05-16T10:08:19;101834.28;;;15.19;54.17
54262;BME280;40174;52.364;6.452;2023-05-16T10:10:49;101841.56;;;15.59;54.30
54262;BME280;40174;52.364;6.452;2023-05-16T10:13:17;101828.81;;;15.42;52.36
54262;BME280;40174;52.364;6.452;2023-05-16T10:15:45;101845.06;;;15.80;52.94
54262;BME280;40174;52.364;6.452;2023-05-16T10:18:15;101835.66;;;15.76;52.20
54262;BME280;40174;52.364;6.452;2023-05-16T10:20:45;101848.28;;;15.74;54.16
54262;BME280;40174;52.364;6.452;2023-05-16T10:23:16;101848.09;;;15.97;52.62
54262;BME280;40174;52.364;6.452;2023-05-16T10:25:43;101843.63;;;16.07;52.09
54262;BME280;40174;52.364;6.452;2023-05-16T10:28:12;101837.19;;;16.10;52.07
54262;BME280;40174;52.364;6.452;2023-05-16T10:30:40;101836.97;;;15.92;52.06
54262;BME280;40174;52.364;6.452;2023-05-16T10:33:09;101835.19;;;15.71;53.08
54262;BME280;40174;52.364;6.452;2023-05-16T10:35:38;101838.03;;;15.79;55.62
54262;BME280;40174;52.364;6.452;2023-05-16T10:38:05;101832.53;;;16.02;55.35
54262;BME280;40174;52.364;6.452;2023-05-16T10:40:34;101826.06;;;16.05;55.81
54262;BME280;40174;52.364;6.452;2023-05-16T10:43:02;101828.66;;;16.16;56.79
54262;BME280;40174;52.364;6.452;2023-05-16T10:45:29;101828.44;;;16.38;55.64
54262;BME280;40174;52.364;6.452;2023-05-16T10:47:57;101832.91;;;16.38;53.85
54262;BME280;40174;52.364;6.452;2023-05-16T10:50:35;101832.34;;;17.04;55.29
54262;BME280;40174;52.364;6.452;2023-05-16T10:53:29;101838.38;;;16.96;53.02
54262;BME280;40174;52.364;6.452;2023-05-16T10:56:05;101832.78;;;16.39;52.13
54262;BME280;40174;52.364;6.452;2023-05-16T10:58:43;101832.28;;;15.74;53.82
54262;BME280;40174;52.364;6.452;2023-05-16T11:01:17;101830.25;;;15.46;54.50
54262;BME280;40174;52.364;6.452;2023-05-16T11:04:05;101839.84;;;15.58;55.26
54262;BME280;40174;52.364;6.452;2023-05-16T11:06:33;101846.03;;;15.79;56.46
54262;BME280;40174;52.364;6.452;2023-05-16T11:09:06;101840.97;;;16.07;57.70
54262;BME280;40174;52.364;6.452;2023-05-16T11:11:39;101835.19;;;16.42;56.45
54262;BME280;40174;52.364;6.452;2023-05-16T11:14:06;101837.94;;;17.01;55.06
54262;BME280;40174;52.364;6.452;2023-05-16T11:16:33;101832.59;;;17.20;54.43
54262;BME280;40174;52.364;6.452;2023-05-16T11:19:03;101823.44;;;17.42;50.71
54262;BME280;40174;52.364;6.452;2023-05-16T11:22:04;101830.75;;;17.31;51.04
54262;BME280;40174;52.364;6.452;2023-05-16T11:24:33;101830.78;;;17.11;50.75
54262;BME280;40174;52.364;6.452;2023-05-16T11:27:01;101830.78;;;16.92;52.24
54262;BME280;40174;52.364;6.452;2023-05-16T11:29:30;101833.13;;;16.75;51.68
54262;BME280;40174;52.364;6.452;2023-05-16T11:31:57;101823.44;;;17.23;52.84
54262;BME280;40174;52.364;6.452;2023-05-16T11:34:24;101822.47;;;17.34;52.89
54262;BME280;40174;52.364;6.452;2023-05-16T11:36:51;101831.88;;;17.38;52.40
54262;BME280;40174;52.364;6.452;2023-05-16T11:39:18;101824.88;;;16.98;50.63
54262;BME280;40174;52.364;6.452;2023-05-16T11:41:46;101828.22;;;17.19;52.23
54262;BME280;40174;52.364;6.452;2023-05-16T11:44:12;101832.88;;;17.17;50.97
54262;BME280;40174;52.364;6.452;2023-05-16T11:46:39;101827.00;;;17.04;52.19
54262;BME280;40174;52.364;6.452;2023-05-16T11:49:06;101823.28;;;16.76;51.29
54262;BME280;40174;52.364;6.452;2023-05-16T11:51:34;101817.84;;;16.97;51.58
54262;BME280;40174;52.364;6.452;2023-05-16T11:54:01;101825.03;;;16.87;51.91
54262;BME280;40174;52.364;6.452;2023-05-16T11:56:29;101833.84;;;17.36;50.12
54262;BME280;40174;52.364;6.452;2023-05-16T11:58:58;101824.88;;;17.74;47.98
54262;BME280;40174;52.364;6.452;2023-05-16T12:01:30;101831.81;;;18.04;48.11
54262;BME280;40174;52.364;6.452;2023-05-16T12:03:57;101838.22;;;17.94;47.54
54262;BME280;40174;52.364;6.452;2023-05-16T12:06:24;101815.56;;;17.31;48.58
54262;BME280;40174;52.364;6.452;2023-05-16T12:08:51;101836.97;;;17.78;48.83
54262;BME280;40174;52.364;6.452;2023-05-16T12:11:18;101827.47;;;18.03;48.14
54262;BME280;40174;52.364;6.452;2023-05-16T12:13:46;101840.56;;;18.34;45.81
54262;BME280;40174;52.364;6.452;2023-05-16T12:16:14;101837.34;;;18.03;46.02
54262;BME280;40174;52.364;6.452;2023-05-16T12:18:41;101850.41;;;18.06;47.43
54262;BME280;40174;52.364;6.452;2023-05-16T12:21:08;101850.59;;;17.95;46.70
54262;BME280;40174;52.364;6.452;2023-05-16T12:23:35;101854.91;;;17.49;47.65
54262;BME280;40174;52.364;6.452;2023-05-16T12:26:02;101858.63;;;17.09;49.00
54262;BME280;40174;52.364;6.452;2023-05-16T12:28:31;101874.72;;;16.78;51.90
54262;BME280;40174;52.364;6.452;2023-05-16T12:30:59;101876.88;;;16.84;55.03
54262;BME280;40174;52.364;6.452;2023-05-16T12:33:27;101884.50;;;16.58;56.99
54262;BME280;40174;52.364;6.452;2023-05-16T12:35:53;101880.88;;;16.18;58.09
54262;BME280;40174;52.364;6.452;2023-05-16T12:38:20;101890.56;;;15.89;59.45
54262;BME280;40174;52.364;6.452;2023-05-16T12:40:57;101881.69;;;15.78;59.96
54262;BME280;40174;52.364;6.452;2023-05-16T12:43:24;101897.38;;;16.03;60.53
54262;BME280;40174;52.364;6.452;2023-05-16T12:45:52;101890.16;;;15.93;60.13
54262;BME280;40174;52.364;6.452;2023-05-16T12:48:20;101896.59;;;15.91;59.81
54262;BME280;40174;52.364;6.452;2023-05-16T12:50:48;101897.94;;;16.06;60.17
54262;BME280;40174;52.364;6.452;2023-05-16T12:53:17;101903.28;;;15.64;61.26